sensor_id;sensor_type;location;lat;lon;timestamp;temperature;humidity
24408;DHT22;12542;50.924;4.516;2022-12-07T00:01:14;7.70;99.90
24408;DHT22;12542;50.924;4.516;2022-12-07T00:03:42;7.70;99.90
24408;DHT22;12542;50.924;4.516;2022-12-07T00:06:10;7.60;99.90
24408;DHT22;12542;50.924;4.516;2022-12-07T00:08:36;7.70;99.90
24408;DHT22;12542;50.924;4.516;2022-12-07T00:11:07;7.60;99.90
24408;DHT22;12542;50.924;4.516;2022-12-07T00:13:34;7.60;99.90
24408;DHT22;12542;50.924;4.516;2022-12-07T00:16:05;7.60;99.90
24408;DHT22;12542;50.924;4.516;2022-12-07T00:18:31;7.50;99.90
24408;DHT22;12542;50.924;4.516;2022-12-07T00:21:02;7.40;99.90
24408;DHT22;12542;50.924;4.516;2022-12-07T00:23:28;7.30;99.90
24408;DHT22;12542;50.924;4.516;2022-12-07T00:25:54;7.30;99.90
24408;DHT22;12542;50.924;4.516;2022-12-07T00:28:20;7.30;99.90
24408;DHT22;12542;50.924;4.516;2022-12-07T00:30:46;7.20;99.90
24408;DHT22;12542;50.924;4.516;2022-12-07T00:33:12;7.20;99.90
24408;DHT22;12542;50.924;4.516;2022-12-07T00:35:37;7.10;99.90
24408;DHT22;12542;50.924;4.516;2022-12-07T00:38:03;7.10;99.90
24408;DHT22;12542;50.924;4.516;2022-12-07T00:40:30;7.00;99.90
24408;DHT22;12542;50.924;4.516;2022-12-07T00:42:56;7.00;99.90
24408;DHT22;12542;50.924;4.516;2022-12-07T00:45:21;6.90;99.90
24408;DHT22;12542;50.924;4.516;2022-12-07T00:47:47;6.90;99.90
24408;DHT22;12542;50.924;4.516;2022-12-07T00:50:13;6.90;99.90
24408;DHT22;12542;50.924;4.516;2022-12-07T00:52:38;6.80;99.90
24408;DHT22;12542;50.924;4.516;2022-12-07T00:55:04;6.80;99.90
24408;DHT22;12542;50.924;4.516;2022-12-07T00:57:30;6.70;99.90
24408;DHT22;12542;50.924;4.516;2022-12-07T00:59:56;6.60;99.90
24408;DHT22;12542;50.924;4.516;2022-12-07T01:02:23;6.60;99.90
24408;DHT22;12542;50.924;4.516;2022-12-07T01:04:49;6.60;99.90
24408;DHT22;12542;50.924;4.516;2022-12-07T01:07:15;6.60;99.90
24408;DHT22;12542;50.924;4.516;2022-12-07T01:09:41;6.60;99.90
24408;DHT22;12542;50.924;4.516;2022-12-07T01:12:07;6.50;99.90
24408;DHT22;12542;50.924;4.516;2022-12-07T01:14:33;6.50;99.90
24408;DHT22;12542;50.924;4.516;2022-12-07T01:16:59;6.50;99.90
24408;DHT22;12542;50.924;4.516;2022-12-07T01:19:25;6.50;99.90
24408;DHT22;12542;50.924;4.516;2022-12-07T01:21:50;6.40;99.90
24408;DHT22;12542;50.924;4.516;2022-12-07T01:24:18;6.40;99.90
24408;DHT22;12542;50.924;4.516;2022-12-07T01:26:44;6.40;99.90
24408;DHT22;12542;50.924;4.516;2022-12-07T01:29:10;6.40;99.90
24408;DHT22;12542;50.924;4.516;2022-12-07T01:31:36;6.30;99.90
24408;DHT22;12542;50.924;4.516;2022-12-07T01:34:02;6.30;99.90
24408;DHT22;12542;50.924;4.516;2022-12-07T01:36:34;6.30;99.90
24408;DHT22;12542;50.924;4.516;2022-12-07T01:39:04;6.30;99.90
24408;DHT22;12542;50.924;4.516;2022-12-07T01:41:33;6.30;99.90
24408;DHT22;12542;50.924;4.516;2022-12-07T01:47:06;6.40;99.90
24408;DHT22;12542;50.924;4.516;2022-12-07T01:49:39;6.40;99.90
24408;DHT22;12542;50.924;4.516;2022-12-07T01:52:31;6.40;99.90
24408;DHT22;12542;50.924;4.516;2022-12-07T01:55:04;6.50;99.90
24408;DHT22;12542;50.924;4.516;2022-12-07T01:57:32;6.50;99.90
24408;DHT22;12542;50.924;4.516;2022-12-07T01:59:59;6.50;99.90
24408;DHT22;12542;50.924;4.516;2022-12-07T02:02:34;6.60;99.90
24408;DHT22;12542;50.924;4.516;2022-12-07T02:05:03;6.60;99.90
24408;DHT22;12542;50.924;4.516;2022-12-07T02:07:29;6.70;99.90
24408;DHT22;12542;50.924;4.516;2022-12-07T02:09:56;6.70;99.90
24408;DHT22;12542;50.924;4.516;2022-12-07T02:12:23;6.60;99.90
24408;DHT22;12542;50.924;4.516;2022-12-07T02:14:50;6.70;99.90
24408;DHT22;12542;50.924;4.516;2022-12-07T02:17:51;6.70;99.90
24408;DHT22;12542;50.924;4.516;2022-12-07T02:20:40;6.80;99.90
24408;DHT22;12542;50.924;4.516;2022-12-07T02:23:39;6.80;99.90
24408;DHT22;12542;50.924;4.516;2022-12-07T02:31:17;6.80;99.90
24408;DHT22;12542;50.924;4.516;2022-12-07T02:33:49;6.80;99.90
24408;DHT22;12542;50.924;4.516;2022-12-07T02:36:27;6.80;99.90
24408;DHT22;12542;50.924;4.516;2022-12-07T02:39:41;6.80;99.90
24408;DHT22;12542;50.924;4.516;2022-12-07T02:42:17;6.80;99.90
24408;DHT22;12542;50.924;4.516;2022-12-07T02:44:45;6.80;99.90
24408;DHT22;12542;50.924;4.516;2022-12-07T02:47:14;6.80;99.90
24408;DHT22;12542;50.924;4.516;2022-12-07T02:49:42;6.80;99.90
24408;DHT22;12542;50.924;4.516;2022-12-07T02:52:08;6.80;99.90
24408;DHT22;12542;50.924;4.516;2022-12-07T02:54:34;6.80;99.90
24408;DHT22;12542;50.924;4.516;2022-12-07T03:00:27;6.70;99.90
24408;DHT22;12542;50.924;4.516;2022-12-07T03:03:01;6.40;99.90
24408;DHT22;12542;50.924;4.516;2022-12-07T03:05:59;6.50;99.90
24408;DHT22;12542;50.924;4.516;2022-12-07T03:16:52;6.40;99.90
24408;DHT22;12542;50.924;4.516;2022-12-07T03:19:21;6.30;99.90
24408;DHT22;12542;50.924;4.516;2022-12-07T03:22:00;6.40;99.90
24408;DHT22;12542;50.924;4.516;2022-12-07T03:24:33;6.50;99.90
24408;DHT22;12542;50.924;4.516;2022-12-07T03:27:13;6.50;99.90
24408;DHT22;12542;50.924;4.516;2022-12-07T03:29:44;6.50;99.90
24408;DHT22;12542;50.924;4.516;2022-12-07T03:32:15;6.60;99.90
24408;DHT22;12542;50.924;4.516;2022-12-07T03:34:47;6.80;99.90
24408;DHT22;12542;50.924;4.516;2022-12-07T03:37:21;6.80;99.90
24408;DHT22;12542;50.924;4.516;2022-12-07T03:39:59;6.80;99.90
24408;DHT22;12542;50.924;4.516;2022-12-07T03:42:28;6.70;99.90
24408;DHT22;12542;50.924;4.516;2022-12-07T03:44:54;6.70;99.90
24408;DHT22;12542;50.924;4.516;2022-12-07T03:47:45;6.60;99.90
24408;DHT22;12542;50.924;4.516;2022-12-07T03:50:32;6.60;99.90
24408;DHT22;12542;50.924;4.516;2022-12-07T03:53:20;6.60;99.90
24408;DHT22;12542;50.924;4.516;2022-12-07T03:55:48;6.70;99.90
24408;DHT22;12542;50.924;4.516;2022-12-07T03:58:17;6.60;99.90
24408;DHT22;12542;50.924;4.516;2022-12-07T04:00:44;6.60;99.90
24408;DHT22;12542;50.924;4.516;2022-12-07T04:03:11;6.60;99.90
24408;DHT22;12542;50.924;4.516;2022-12-07T04:05:37;6.60;99.90
24408;DHT22;12542;50.924;4.516;2022-12-07T04:08:04;6.60;99.90
24408;DHT22;12542;50.924;4.516;2022-12-07T04:10:30;6.60;99.90
24408;DHT22;12542;50.924;4.516;2022-12-07T04:12:56;6.40;99.90
24408;DHT22;12542;50.924;4.516;2022-12-07T04:15:22;6.40;99.90
24408;DHT22;12542;50.924;4.516;2022-12-07T04:17:47;6.40;99.90
24408;DHT22;12542;50.924;4.516;2022-12-07T04:20:14;6.40;99.90
24408;DHT22;12542;50.924;4.516;2022-12-07T04:22:39;6.30;99.90
24408;DHT22;12542;50.924;4.516;2022-12-07T04:25:05;6.30;99.90
24408;DHT22;12542;50.924;4.516;2022-12-07T04:27:31;6.30;99.90
24408;DHT22;12542;50.924;4.516;2022-12-07T04:29:57;6.30;99.90
24408;DHT22;12542;50.924;4.516;2022-12-07T04:32:23;6.10;99.90
24408;DHT22;12542;50.924;4.516;2022-12-07T04:34:49;6.10;99.90
24408;DHT22;12542;50.924;4.516;2022-12-07T04:37:14;6.10;99.90
24408;DHT22;12542;50.924;4.516;2022-12-07T04:39:41;5.90;99.90
24408;DHT22;12542;50.924;4.516;2022-12-07T04:42:07;5.90;99.90
24408;DHT22;12542;50.924;4.516;2022-12-07T04:44:35;5.90;99.90
24408;DHT22;12542;50.924;4.516;2022-12-07T04:47:00;5.90;99.90
24408;DHT22;12542;50.924;4.516;2022-12-07T04:49:26;5.80;99.90
24408;DHT22;12542;50.924;4.516;2022-12-07T04:51:52;5.90;99.90
24408;DHT22;12542;50.924;4.516;2022-12-07T04:54:18;5.70;99.90
24408;DHT22;12542;50.924;4.516;2022-12-07T04:56:44;5.70;99.90
24408;DHT22;12542;50.924;4.516;2022-12-07T04:59:11;5.80;99.90
24408;DHT22;12542;50.924;4.516;2022-12-07T05:01:37;5.80;99.90
24408;DHT22;12542;50.924;4.516;2022-12-07T05:04:06;5.80;99.90
24408;DHT22;12542;50.924;4.516;2022-12-07T05:06:32;5.80;99.90
24408;DHT22;12542;50.924;4.516;2022-12-07T05:08:58;5.70;99.90
24408;DHT22;12542;50.924;4.516;2022-12-07T05:11:24;5.70;99.90
24408;DHT22;12542;50.924;4.516;2022-12-07T05:16:31;5.70;99.90
24408;DHT22;12542;50.924;4.516;2022-12-07T05:18:58;5.60;99.90
24408;DHT22;12542;50.924;4.516;2022-12-07T05:21:26;5.80;99.90
24408;DHT22;12542;50.924;4.516;2022-12-07T05:23:52;5.80;99.90
24408;DHT22;12542;50.924;4.516;2022-12-07T05:26:18;5.90;99.90
24408;DHT22;12542;50.924;4.516;2022-12-07T05:28:45;5.90;99.90
24408;DHT22;12542;50.924;4.516;2022-12-07T05:31:11;6.00;99.90
24408;DHT22;12542;50.924;4.516;2022-12-07T05:33:36;6.10;99.90
24408;DHT22;12542;50.924;4.516;2022-12-07T05:36:03;6.10;99.90
24408;DHT22;12542;50.924;4.516;2022-12-07T05:38:31;6.20;99.90
24408;DHT22;12542;50.924;4.516;2022-12-07T05:41:01;6.30;99.90
24408;DHT22;12542;50.924;4.516;2022-12-07T05:43:27;6.30;99.90
24408;DHT22;12542;50.924;4.516;2022-12-07T05:45:52;6.30;99.90
24408;DHT22;12542;50.924;4.516;2022-12-07T05:48:18;6.30;99.90
24408;DHT22;12542;50.924;4.516;2022-12-07T05:50:44;6.20;99.90
24408;DHT22;12542;50.924;4.516;2022-12-07T05:53:12;6.30;99.90
24408;DHT22;12542;50.924;4.516;2022-12-07T05:55:38;6.30;99.90
24408;DHT22;12542;50.924;4.516;2022-12-07T05:58:03;6.30;99.90
24408;DHT22;12542;50.924;4.516;2022-12-07T06:00:48;6.30;99.90
24408;DHT22;12542;50.924;4.516;2022-12-07T06:03:13;6.40;99.90
24408;DHT22;12542;50.924;4.516;2022-12-07T06:05:39;6.40;99.90
24408;DHT22;12542;50.924;4.516;2022-12-07T06:08:05;6.40;99.90
24408;DHT22;12542;50.924;4.516;2022-12-07T06:10:31;6.50;99.90
24408;DHT22;12542;50.924;4.516;2022-12-07T06:12:57;6.50;99.90
24408;DHT22;12542;50.924;4.516;2022-12-07T06:15:23;6.40;99.90
24408;DHT22;12542;50.924;4.516;2022-12-07T06:17:49;6.40;99.90
24408;DHT22;12542;50.924;4.516;2022-12-07T06:20:14;6.50;99.90
24408;DHT22;12542;50.924;4.516;2022-12-07T06:22:41;6.60;99.90
24408;DHT22;12542;50.924;4.516;2022-12-07T06:25:07;6.60;99.90
24408;DHT22;12542;50.924;4.516;2022-12-07T06:27:33;6.60;99.90
24408;DHT22;12542;50.924;4.516;2022-12-07T06:30:00;6.60;99.90
24408;DHT22;12542;50.924;4.516;2022-12-07T06:32:35;6.60;99.90
24408;DHT22;12542;50.924;4.516;2022-12-07T06:35:01;6.70;99.90
24408;DHT22;12542;50.924;4.516;2022-12-07T06:37:27;6.70;99.90
24408;DHT22;12542;50.924;4.516;2022-12-07T06:39:54;6.60;99.90
24408;DHT22;12542;50.924;4.516;2022-12-07T06:42:20;6.50;99.90
24408;DHT22;12542;50.924;4.516;2022-12-07T06:44:46;6.50;99.90
24408;DHT22;12542;50.924;4.516;2022-12-07T06:47:12;6.50;99.90
24408;DHT22;12542;50.924;4.516;2022-12-07T06:49:38;6.50;99.90
24408;DHT22;12542;50.924;4.516;2022-12-07T06:52:05;6.60;99.90
24408;DHT22;12542;50.924;4.516;2022-12-07T06:54:31;6.60;99.90
24408;DHT22;12542;50.924;4.516;2022-12-07T06:56:57;6.50;99.90
24408;DHT22;12542;50.924;4.516;2022-12-07T06:59:24;6.60;99.90
24408;DHT22;12542;50.924;4.516;2022-12-07T07:01:52;6.40;99.90
24408;DHT22;12542;50.924;4.516;2022-12-07T07:04:17;6.50;99.90
24408;DHT22;12542;50.924;4.516;2022-12-07T07:06:43;6.50;99.90
24408;DHT22;12542;50.924;4.516;2022-12-07T07:09:10;6.60;99.90
24408;DHT22;12542;50.924;4.516;2022-12-07T07:11:35;6.60;99.90
24408;DHT22;12542;50.924;4.516;2022-12-07T07:14:01;6.60;99.90
24408;DHT22;12542;50.924;4.516;2022-12-07T07:16:29;6.60;99.90
24408;DHT22;12542;50.924;4.516;2022-12-07T07:18:56;6.60;99.90
24408;DHT22;12542;50.924;4.516;2022-12-07T07:21:22;6.50;99.90
24408;DHT22;12542;50.924;4.516;2022-12-07T07:23:48;6.60;99.90
24408;DHT22;12542;50.924;4.516;2022-12-07T07:26:13;6.60;99.90
24408;DHT22;12542;50.924;4.516;2022-12-07T07:28:39;6.70;99.90
24408;DHT22;12542;50.924;4.516;2022-12-07T07:31:06;6.80;99.90
24408;DHT22;12542;50.924;4.516;2022-12-07T07:33:32;6.80;99.90
24408;DHT22;12542;50.924;4.516;2022-12-07T07:35:57;6.60;99.90
24408;DHT22;12542;50.924;4.516;2022-12-07T07:38:26;6.70;99.90
24408;DHT22;12542;50.924;4.516;2022-12-07T07:40:52;6.80;99.90
24408;DHT22;12542;50.924;4.516;2022-12-07T07:43:17;6.80;99.90
24408;DHT22;12542;50.924;4.516;2022-12-07T07:45:44;6.70;99.90
24408;DHT22;12542;50.924;4.516;2022-12-07T07:48:10;6.60;99.90
24408;DHT22;12542;50.924;4.516;2022-12-07T07:50:35;6.60;99.90
24408;DHT22;12542;50.924;4.516;2022-12-07T07:53:01;6.60;99.90
24408;DHT22;12542;50.924;4.516;2022-12-07T07:55:26;6.60;99.90
24408;DHT22;12542;50.924;4.516;2022-12-07T07:57:54;6.60;99.90
24408;DHT22;12542;50.924;4.516;2022-12-07T08:00:20;6.60;99.90
24408;DHT22;12542;50.924;4.516;2022-12-07T08:02:48;6.40;99.90
24408;DHT22;12542;50.924;4.516;2022-12-07T08:05:14;6.50;99.90
24408;DHT22;12542;50.924;4.516;2022-12-07T08:07:40;6.50;99.90
24408;DHT22;12542;50.924;4.516;2022-12-07T08:10:09;6.50;99.90
24408;DHT22;12542;50.924;4.516;2022-12-07T08:12:39;6.50;99.90
24408;DHT22;12542;50.924;4.516;2022-12-07T08:15:27;6.60;99.90
24408;DHT22;12542;50.924;4.516;2022-12-07T08:17:53;6.50;99.90
24408;DHT22;12542;50.924;4.516;2022-12-07T08:20:19;6.50;99.90
24408;DHT22;12542;50.924;4.516;2022-12-07T08:22:45;6.70;99.90
24408;DHT22;12542;50.924;4.516;2022-12-07T08:25:11;6.90;99.90
24408;DHT22;12542;50.924;4.516;2022-12-07T08:27:36;7.90;99.90
24408;DHT22;12542;50.924;4.516;2022-12-07T08:30:02;9.40;99.90
24408;DHT22;12542;50.924;4.516;2022-12-07T08:32:28;10.80;99.90
24408;DHT22;12542;50.924;4.516;2022-12-07T08:34:54;12.10;99.90
24408;DHT22;12542;50.924;4.516;2022-12-07T08:37:19;13.20;99.90
24408;DHT22;12542;50.924;4.516;2022-12-07T08:39:45;14.10;99.90
24408;DHT22;12542;50.924;4.516;2022-12-07T08:42:11;14.70;99.90
24408;DHT22;12542;50.924;4.516;2022-12-07T08:44:37;15.40;99.90
24408;DHT22;12542;50.924;4.516;2022-12-07T08:47:05;16.20;99.90
24408;DHT22;12542;50.924;4.516;2022-12-07T08:49:41;16.60;99.90
24408;DHT22;12542;50.924;4.516;2022-12-07T08:52:08;17.10;99.90
24408;DHT22;12542;50.924;4.516;2022-12-07T08:54:36;16.70;99.90
24408;DHT22;12542;50.924;4.516;2022-12-07T08:57:03;15.70;99.90
24408;DHT22;12542;50.924;4.516;2022-12-07T08:59:30;14.50;99.90
24408;DHT22;12542;50.924;4.516;2022-12-07T09:01:56;13.30;99.90
24408;DHT22;12542;50.924;4.516;2022-12-07T09:04:22;12.30;99.90
24408;DHT22;12542;50.924;4.516;2022-12-07T09:06:48;11.60;99.90
24408;DHT22;12542;50.924;4.516;2022-12-07T09:09:14;11.00;99.90
24408;DHT22;12542;50.924;4.516;2022-12-07T09:11:40;10.60;99.90
24408;DHT22;12542;50.924;4.516;2022-12-07T09:14:06;10.30;99.90
24408;DHT22;12542;50.924;4.516;2022-12-07T09:16:32;10.00;99.90
24408;DHT22;12542;50.924;4.516;2022-12-07T09:18:59;9.70;99.90
24408;DHT22;12542;50.924;4.516;2022-12-07T09:21:24;9.50;99.90
24408;DHT22;12542;50.924;4.516;2022-12-07T09:23:50;9.50;99.90
24408;DHT22;12542;50.924;4.516;2022-12-07T09:26:16;9.50;99.90
24408;DHT22;12542;50.924;4.516;2022-12-07T09:28:42;9.50;99.90
24408;DHT22;12542;50.924;4.516;2022-12-07T09:31:08;9.30;99.90
24408;DHT22;12542;50.924;4.516;2022-12-07T09:33:34;9.20;99.90
24408;DHT22;12542;50.924;4.516;2022-12-07T09:36:00;9.10;99.90
24408;DHT22;12542;50.924;4.516;2022-12-07T09:38:25;8.90;99.90
24408;DHT22;12542;50.924;4.516;2022-12-07T09:40:53;8.90;99.90
24408;DHT22;12542;50.924;4.516;2022-12-07T09:43:24;8.60;99.90
24408;DHT22;12542;50.924;4.516;2022-12-07T09:45:52;8.60;99.90
24408;DHT22;12542;50.924;4.516;2022-12-07T09:48:36;8.60;99.90
24408;DHT22;12542;50.924;4.516;2022-12-07T09:51:21;8.70;99.90
24408;DHT22;12542;50.924;4.516;2022-12-07T09:53:49;8.70;99.90
24408;DHT22;12542;50.924;4.516;2022-12-07T09:56:16;8.80;99.90
24408;DHT22;12542;50.924;4.516;2022-12-07T09:58:43;8.70;99.90
24408;DHT22;12542;50.924;4.516;2022-12-07T10:03:42;9.00;99.90
24408;DHT22;12542;50.924;4.516;2022-12-07T10:06:11;8.90;99.90
24408;DHT22;12542;50.924;4.516;2022-12-07T10:08:37;9.00;99.90
24408;DHT22;12542;50.924;4.516;2022-12-07T10:11:03;9.10;99.90
24408;DHT22;12542;50.924;4.516;2022-12-07T10:16:01;9.30;99.90
24408;DHT22;12542;50.924;4.516;2022-12-07T10:18:30;9.80;99.90
24408;DHT22;12542;50.924;4.516;2022-12-07T10:21:10;10.80;99.90
24408;DHT22;12542;50.924;4.516;2022-12-07T10:23:39;11.30;99.90
24408;DHT22;12542;50.924;4.516;2022-12-07T10:26:36;11.50;99.90
24408;DHT22;12542;50.924;4.516;2022-12-07T10:32:30;10.80;99.90
24408;DHT22;12542;50.924;4.516;2022-12-07T10:34:52;10.20;99.90
24408;DHT22;12542;50.924;4.516;2022-12-07T10:37:40;10.10;99.90
24408;DHT22;12542;50.924;4.516;2022-12-07T10:40:30;10.10;99.90
24408;DHT22;12542;50.924;4.516;2022-12-07T10:43:04;10.00;99.90
24408;DHT22;12542;50.924;4.516;2022-12-07T10:45:32;10.00;99.90
24408;DHT22;12542;50.924;4.516;2022-12-07T10:48:11;10.10;99.90
24408;DHT22;12542;50.924;4.516;2022-12-07T10:53:35;9.50;99.90
24408;DHT22;12542;50.924;4.516;2022-12-07T11:01:54;9.60;99.90
24408;DHT22;12542;50.924;4.516;2022-12-07T11:04:31;9.60;99.90
24408;DHT22;12542;50.924;4.516;2022-12-07T11:07:16;9.60;99.90
24408;DHT22;12542;50.924;4.516;2022-12-07T11:18:06;10.40;99.90
24408;DHT22;12542;50.924;4.516;2022-12-07T11:26:41;11.00;99.90
24408;DHT22;12542;50.924;4.516;2022-12-07T11:32:02;11.00;99.90
24408;DHT22;12542;50.924;4.516;2022-12-07T11:37:23;11.00;99.90
24408;DHT22;12542;50.924;4.516;2022-12-07T11:39:55;11.20;99.90
24408;DHT22;12542;50.924;4.516;2022-12-07T11:43:09;11.30;99.90
24408;DHT22;12542;50.924;4.516;2022-12-07T11:45:33;11.30;99.90
24408;DHT22;12542;50.924;4.516;2022-12-07T11:48:14;11.30;99.90
24408;DHT22;12542;50.924;4.516;2022-12-07T11:50:50;10.80;99.90
24408;DHT22;12542;50.924;4.516;2022-12-07T11:53:21;10.70;99.90
24408;DHT22;12542;50.924;4.516;2022-12-07T12:01:47;10.70;99.90
24408;DHT22;12542;50.924;4.516;2022-12-07T12:04:27;10.60;99.90
24408;DHT22;12542;50.924;4.516;2022-12-07T12:06:59;10.80;99.90
24408;DHT22;12542;50.924;4.516;2022-12-07T12:09:35;10.80;99.90
24408;DHT22;12542;50.924;4.516;2022-12-07T12:12:41;10.70;99.90
24408;DHT22;12542;50.924;4.516;2022-12-07T12:15:57;10.40;99.90
24408;DHT22;12542;50.924;4.516;2022-12-07T12:18:05;10.40;99.90
24408;DHT22;12542;50.924;4.516;2022-12-07T12:20:45;10.40;99.90
24408;DHT22;12542;50.924;4.516;2022-12-07T12:23:19;10.70;99.90
24408;DHT22;12542;50.924;4.516;2022-12-07T12:28:41;10.70;99.90
24408;DHT22;12542;50.924;4.516;2022-12-07T12:33:47;10.60;99.90
24408;DHT22;12542;50.924;4.516;2022-12-07T12:36:25;10.70;99.90
24408;DHT22;12542;50.924;4.516;2022-12-07T12:44:02;10.70;99.90
24408;DHT22;12542;50.924;4.516;2022-12-07T12:51:48;11.00;99.90
24408;DHT22;12542;50.924;4.516;2022-12-07T12:54:26;11.00;99.90
24408;DHT22;12542;50.924;4.516;2022-12-07T12:59:42;10.70;99.90
24408;DHT22;12542;50.924;4.516;2022-12-07T13:13:02;10.50;99.90
24408;DHT22;12542;50.924;4.516;2022-12-07T13:20:56;10.20;99.90
24408;DHT22;12542;50.924;4.516;2022-12-07T13:26:22;10.00;99.90
24408;DHT22;12542;50.924;4.516;2022-12-07T13:28:51;10.00;99.90
24408;DHT22;12542;50.924;4.516;2022-12-07T13:31:33;10.00;99.90
24408;DHT22;12542;50.924;4.516;2022-12-07T13:34:01;10.00;99.90
24408;DHT22;12542;50.924;4.516;2022-12-07T13:36:38;10.10;99.90
24408;DHT22;12542;50.924;4.516;2022-12-07T13:41:41;10.10;99.90
24408;DHT22;12542;50.924;4.516;2022-12-07T13:44:15;10.00;99.90
24408;DHT22;12542;50.924;4.516;2022-12-07T13:47:07;9.80;99.90
24408;DHT22;12542;50.924;4.516;2022-12-07T13:49:47;9.80;99.90
24408;DHT22;12542;50.924;4.516;2022-12-07T13:54:47;9.70;99.90
24408;DHT22;12542;50.924;4.516;2022-12-07T13:57:13;9.70;99.90
24408;DHT22;12542;50.924;4.516;2022-12-07T13:59:39;9.50;99.90
24408;DHT22;12542;50.924;4.516;2022-12-07T14:02:24;9.30;99.90
24408;DHT22;12542;50.924;4.516;2022-12-07T14:04:51;9.20;99.90
24408;DHT22;12542;50.924;4.516;2022-12-07T14:07:26;9.20;99.90
24408;DHT22;12542;50.924;4.516;2022-12-07T14:09:59;8.90;99.90
24408;DHT22;12542;50.924;4.516;2022-12-07T14:12:27;9.00;99.90
24408;DHT22;12542;50.924;4.516;2022-12-07T14:14:54;8.80;99.90
24408;DHT22;12542;50.924;4.516;2022-12-07T14:17:23;8.70;99.90
24408;DHT22;12542;50.924;4.516;2022-12-07T14:19:53;8.60;99.90
24408;DHT22;12542;50.924;4.516;2022-12-07T14:22:30;8.50;99.90
24408;DHT22;12542;50.924;4.516;2022-12-07T14:27:39;8.40;99.90
24408;DHT22;12542;50.924;4.516;2022-12-07T14:30:17;8.30;99.90
24408;DHT22;12542;50.924;4.516;2022-12-07T14:32:43;8.30;99.90
24408;DHT22;12542;50.924;4.516;2022-12-07T14:35:15;8.20;99.90
24408;DHT22;12542;50.924;4.516;2022-12-07T14:37:44;8.30;99.90
24408;DHT22;12542;50.924;4.516;2022-12-07T14:40:25;8.20;99.90
24408;DHT22;12542;50.924;4.516;2022-12-07T14:43:05;8.20;99.90
24408;DHT22;12542;50.924;4.516;2022-12-07T14:45:32;8.30;99.90
24408;DHT22;12542;50.924;4.516;2022-12-07T14:47:58;8.20;99.90
24408;DHT22;12542;50.924;4.516;2022-12-07T14:50:23;8.30;99.90
24408;DHT22;12542;50.924;4.516;2022-12-07T14:52:58;8.30;99.90
24408;DHT22;12542;50.924;4.516;2022-12-07T14:55:28;8.40;99.90
24408;DHT22;12542;50.924;4.516;2022-12-07T14:57:55;8.30;99.90
24408;DHT22;12542;50.924;4.516;2022-12-07T15:00:23;8.30;99.90
24408;DHT22;12542;50.924;4.516;2022-12-07T15:02:49;8.40;99.90
24408;DHT22;12542;50.924;4.516;2022-12-07T15:05:17;8.40;99.90
24408;DHT22;12542;50.924;4.516;2022-12-07T15:07:44;8.00;99.90
24408;DHT22;12542;50.924;4.516;2022-12-07T15:10:22;8.10;99.90
24408;DHT22;12542;50.924;4.516;2022-12-07T15:12:48;7.90;99.90
24408;DHT22;12542;50.924;4.516;2022-12-07T15:15:14;7.90;99.90
24408;DHT22;12542;50.924;4.516;2022-12-07T15:17:41;7.90;99.90
24408;DHT22;12542;50.924;4.516;2022-12-07T15:20:12;8.00;99.90
24408;DHT22;12542;50.924;4.516;2022-12-07T15:22:39;8.10;99.90
24408;DHT22;12542;50.924;4.516;2022-12-07T15:25:08;8.00;99.90
24408;DHT22;12542;50.924;4.516;2022-12-07T15:27:34;8.00;99.90
24408;DHT22;12542;50.924;4.516;2022-12-07T15:30:00;7.90;99.90
24408;DHT22;12542;50.924;4.516;2022-12-07T15:32:26;7.80;99.90
24408;DHT22;12542;50.924;4.516;2022-12-07T15:34:52;7.80;99.90
24408;DHT22;12542;50.924;4.516;2022-12-07T15:37:20;7.80;99.90
24408;DHT22;12542;50.924;4.516;2022-12-07T15:39:46;7.80;99.90
24408;DHT22;12542;50.924;4.516;2022-12-07T15:42:12;7.70;99.90
24408;DHT22;12542;50.924;4.516;2022-12-07T15:44:38;7.80;99.90
24408;DHT22;12542;50.924;4.516;2022-12-07T15:47:22;7.80;99.90
24408;DHT22;12542;50.924;4.516;2022-12-07T15:49:51;7.70;99.90
24408;DHT22;12542;50.924;4.516;2022-12-07T15:52:17;7.70;99.90
24408;DHT22;12542;50.924;4.516;2022-12-07T15:54:44;7.80;99.90
24408;DHT22;12542;50.924;4.516;2022-12-07T15:57:10;7.90;99.90
24408;DHT22;12542;50.924;4.516;2022-12-07T15:59:36;7.80;99.90
24408;DHT22;12542;50.924;4.516;2022-12-07T16:02:01;7.90;99.90
24408;DHT22;12542;50.924;4.516;2022-12-07T16:04:28;7.80;99.90
24408;DHT22;12542;50.924;4.516;2022-12-07T16:06:54;7.80;99.90
24408;DHT22;12542;50.924;4.516;2022-12-07T16:09:21;7.90;99.90
24408;DHT22;12542;50.924;4.516;2022-12-07T16:11:46;7.90;99.90
24408;DHT22;12542;50.924;4.516;2022-12-07T16:14:12;7.80;99.90
24408;DHT22;12542;50.924;4.516;2022-12-07T16:16:38;7.60;99.90
24408;DHT22;12542;50.924;4.516;2022-12-07T16:19:06;7.60;99.90
24408;DHT22;12542;50.924;4.516;2022-12-07T16:21:33;7.60;99.90
24408;DHT22;12542;50.924;4.516;2022-12-07T16:23:59;7.50;99.90
24408;DHT22;12542;50.924;4.516;2022-12-07T16:26:27;7.60;99.90
24408;DHT22;12542;50.924;4.516;2022-12-07T16:28:53;7.60;99.90
24408;DHT22;12542;50.924;4.516;2022-12-07T16:31:22;7.70;99.90
24408;DHT22;12542;50.924;4.516;2022-12-07T16:33:50;7.80;99.90
24408;DHT22;12542;50.924;4.516;2022-12-07T16:36:18;7.70;99.90
24408;DHT22;12542;50.924;4.516;2022-12-07T16:38:44;7.70;99.90
24408;DHT22;12542;50.924;4.516;2022-12-07T16:41:10;7.70;99.90
24408;DHT22;12542;50.924;4.516;2022-12-07T16:43:37;7.60;99.90
24408;DHT22;12542;50.924;4.516;2022-12-07T16:46:03;7.60;99.90
24408;DHT22;12542;50.924;4.516;2022-12-07T16:48:30;7.70;99.90
24408;DHT22;12542;50.924;4.516;2022-12-07T16:50:56;7.60;99.90
24408;DHT22;12542;50.924;4.516;2022-12-07T16:53:23;7.60;99.90
24408;DHT22;12542;50.924;4.516;2022-12-07T16:55:50;7.70;99.90
24408;DHT22;12542;50.924;4.516;2022-12-07T16:58:16;7.70;99.90
24408;DHT22;12542;50.924;4.516;2022-12-07T17:00:44;7.50;99.90
24408;DHT22;12542;50.924;4.516;2022-12-07T17:03:10;7.50;99.90
24408;DHT22;12542;50.924;4.516;2022-12-07T17:05:43;7.50;99.90
24408;DHT22;12542;50.924;4.516;2022-12-07T17:08:09;7.50;99.90
24408;DHT22;12542;50.924;4.516;2022-12-07T17:10:38;7.60;99.90
24408;DHT22;12542;50.924;4.516;2022-12-07T17:13:06;7.70;99.90
24408;DHT22;12542;50.924;4.516;2022-12-07T17:16:05;7.70;99.90
24408;DHT22;12542;50.924;4.516;2022-12-07T17:18:35;7.60;99.90
24408;DHT22;12542;50.924;4.516;2022-12-07T17:21:06;7.60;99.90
24408;DHT22;12542;50.924;4.516;2022-12-07T17:23:34;7.50;99.90
24408;DHT22;12542;50.924;4.516;2022-12-07T17:26:08;7.50;99.90
24408;DHT22;12542;50.924;4.516;2022-12-07T17:28:35;7.40;99.90
24408;DHT22;12542;50.924;4.516;2022-12-07T17:31:05;7.30;99.90
24408;DHT22;12542;50.924;4.516;2022-12-07T17:33:32;7.40;99.90
24408;DHT22;12542;50.924;4.516;2022-12-07T17:35:58;7.60;99.90
24408;DHT22;12542;50.924;4.516;2022-12-07T17:38:24;7.70;99.90
24408;DHT22;12542;50.924;4.516;2022-12-07T17:40:49;7.60;99.90
24408;DHT22;12542;50.924;4.516;2022-12-07T17:43:15;7.70;99.90
24408;DHT22;12542;50.924;4.516;2022-12-07T17:45:41;7.70;99.90
24408;DHT22;12542;50.924;4.516;2022-12-07T17:48:06;7.80;99.90